Team logos
Guidelines for entries Team Leaderboard Add or Update a Person FAQ
Jun 2021 - The GA Summer 6-Miler
This challenge was chosen by GarageAthlete


Row six miles as
3 miles (4827m)
3 mins rest
2 miles (3218m)
2 mins rest
and a mile (1609m) to finish
There are no stroke rate restrictions.
1st rep from a standing start.


Record your time for 9654 metres


The July challenge will be chosen by Sub7.
See C2 forum thread for details.

Most Recent EntriesAdd/Update an Entry
DateNameCatTeamResult
2021-06-15Lewin2MHWTSub 7 33:26.0
2021-06-15Glyn LloydMLWTSub 7 37:02.3
2021-06-15Alex Winser TDRMLWTThe Delivery Room 36:29.1
2021-06-15Sabrina RasmussenFLWTForum Flyers 45:27.8
2021-06-15Marc VoorheesMLWTForum Flyers 39:11.2
Bold = new time; italic = updated time
Name:
Password:
Entry: hours min sec
 
Current Leaderboard
Names in blue italics have added or updated their times within the past 24 hours.
#NameCatTeamResultPacePower
1Tobias StöhrMGermania I 32:34.1   1:41.2  337.6 
2NZ - Andy TomlinsonMTe Waka Aotearoa I 32:46.5   1:41.8  331.3 
3Tim Perkins FMMFitness Matters I 32:50.4   1:42.1  329.3 
4Keith DarbymRed Line Rowers I 32:58.4   1:42.5  325.3 
5Justin FarinaMGARAGEATHLETE I 33:05.8   1:42.8  321.7 
6Lewin2MSub 7 I 33:26.0   1:43.9  312.1 
7Craig HodgesMGARAGEATHLETE I 33:27.4   1:44.0  311.4 
8Ian Gallagher TDRMThe Delivery Room I 33:34.1   1:44.3  308.3 
9Nathaniel Wright TDRMThe Delivery Room I 33:49.5   1:45.1  301.4 
10j.dMMAD I 33:51.2   1:45.2  300.6 
11Ben JagoMSub 7 I 33:53.6   1:45.3  299.6 
12Warren MatthewsMSub 7 I 33:53.7   1:45.3  299.5 
13Casey ClarkeMSub 7 II 34:07.3   1:46.0  293.6 
14Kevin CarterMSub 7 II 34:27.0   1:47.1  285.3 
15VgueretMFIRT I 34:27.7   1:47.1  285.0 
16Alan DenbyMSub 7 II 34:34.2   1:47.4  282.3 
17Mark Roberts TDRMThe Delivery Room I 34:37.2   1:47.6  281.1 
18js.klskimSki Erg I 34:40.8   1:47.8  279.6 
19Rich DixonMSub 7 III 34:40.9   1:47.8  279.6 
20Martin Mario JelaniMFitness Matters I 34:46.6   1:48.1  277.3 
21Ian WildeMSub 7 III 34:56.5   1:48.6  273.4 
22Russell CarterMMAD I 34:59.7   1:48.7  272.1 
23BlanksbyFMMFitness Matters I 35:05.4   1:49.0  269.9 
24Pete MarstonMMAD I 35:06.1   1:49.1  269.7 
25sjoerd plagmeijerMFree Spirits I 35:09.3   1:49.2  268.5 
26Ade Peel TO x1MTeam Oarsome I 35:15.0   1:49.5  266.3 
27Harbour RatMGee Crew I 35:25.9   1:50.1  262.2 
28Matt EadesMSub 7 III 35:29.9   1:50.3  260.7 
29js.klsmFIRT I 35:30.1   1:50.3  260.7 
30..IDR TDWMThe Delivery Room II 35:34.5   1:50.6  259.1 
31Alastair Peake FMmFitness Matters I 35:36.7   1:50.7  258.3 
32Mark TremblayMThe Delivery Room II 35:37.6   1:50.7  257.9 
33Richard SAMThe Delivery Room II 35:38.4   1:50.8  257.6 
34Mark Smith Sub7MSub 7 IV 35:43.7   1:51.0  255.7 
35Nick RockliffMTeam Oarsome I 35:45.9   1:51.1  254.9 
36Kay BieriMC2TweetCrew I 35:46.0   1:51.1  254.9 
37Jonty EyresMIsenhurst Rowers I 35:46.7   1:51.2  254.7 
38MerciermFIRT I 35:48.9   1:51.3  253.9 
39Rob PhillipsMSub 7 IV 35:49.8   1:51.3  253.6 
40Nigel FarmerMForum Flyers I 35:51.2   1:51.4  253.1 
41Matthew LeonardMFree Spirits I 35:52.6   1:51.5  252.6 
42meurice robinson RLRmRed Line Rowers I 35:52.9   1:51.5  252.5 
43Richard PruceMSub 7 IV 35:55.0   1:51.6  251.7 
44Jeroen PasmanMSub 7 V 35:56.9   1:51.7  251.1 
45Andy ParkesMGee Crew I 35:57.9   1:51.8  250.7 
46Craig MumbymTeam Oarsome I 35:58.1   1:51.8  250.6 
47Josh Skversky FMMFitness Matters II 35:58.9   1:51.8  250.4 
48Tony MaddocksMThe Delivery Room III 36:02.4   1:52.0  249.2 
49John WalshMSub 7 V 36:06.5   1:52.2  247.7 
50Paul NuttallMFitness Matters II 36:06.6   1:52.2  247.7 
51Peter ClowesMTeam Oarsome I 36:08.4   1:52.3  247.1 
52Justin Nickel FMmFitness Matters II 36:10.3   1:52.4  246.4 
53tony walpoleMFitness Matters II 36:12.6   1:52.5  245.7 
54Matthew James FullerMThe Delivery Room III 36:15.1   1:52.7  244.8 
55Gregory CookmTeam Oarsome II 36:19.8   1:52.9  243.2 
56Patrik GustafssonMFitness Matters III 36:21.3   1:53.0  242.7 
57Allan HallbergMForum Flyers I 36:28.2   1:53.3  240.4 
58Paul SandsMRed Line Rowers I 36:28.3   1:53.3  240.4 
59Rowland Hills (RLR)MRed Line Rowers I 36:28.4   1:53.3  240.4 
60Paul Lloyd FMMFitness Matters III 36:28.7   1:53.4  240.3 
61Alex Winser TDRmThe Delivery Room I 36:29.1   1:53.4  240.2 
62RougeMGee Crew I 36:30.7   1:53.5  239.6 
63Mark HudsonMGARAGEATHLETE I 36:33.6   1:53.6  238.7 
64Dave ChmilowskyjMTeam Oarsome II 36:36.3   1:53.8  237.8 
65Eric AugustMSub 7 V 36:36.4   1:53.8  237.8 
66B McAuleymFitness Matters III 36:41.8   1:54.0  236.0 
67Jake LuceMSub 7 VI 36:48.5   1:54.4  233.9 
68Gerry ArmstrongMTeam Oarsome II 36:49.9   1:54.5  233.4 
69Guillaume DauphinMPaddy Power I 36:54.6   1:54.7  231.9 
70Rob Palk Sub 7MSub 7 VI 36:57.2   1:54.8  231.1 
71Laura TinglefFitness Matters I 36:57.8   1:54.9  230.9 
72Glyn LloydmSub 7 I 37:02.3   1:55.1  229.5 
73Andy ColeMGee Crew II 37:09.1   1:55.4  227.5 
74James HowardmSub 7 II 37:11.8   1:55.6  226.6 
75James ClarkeMFitness Matters III 37:16.0   1:55.8  225.4 
76Mike Pearce (MPx)MSub 7 VI 37:16.4   1:55.8  225.2 
77harrythehamsterMForum Flyers I 37:17.1   1:55.9  225.0 
78BertrandmFIRT I 37:21.1   1:56.1  223.8 
79Russell JonesMRed Line Rowers II 37:27.0   1:56.4  222.1 
80Jan BorkensteinMFree Spirits I 37:35.0   1:56.8  219.7 
81Glynn PowellMSub 7 VII 37:37.2   1:56.9  219.1 
82Carl GranfeltmFitness Matters IV 37:37.8   1:56.9  218.9 
83Phil RaynerMIsenhurst Rowers I 37:38.9   1:57.0  218.6 
84Adam YalowichmFitness Matters IV 37:41.5   1:57.1  217.8 
85Paul Timmons FFCmFirm Fitness I 37:45.0   1:57.3  216.8 
86Kevin HillmanMEmpty the Tanks I 37:45.5   1:57.3  216.7 
87Jon SarcheMForum Flyers II 37:51.4   1:57.6  215.0 
88Richard SteventonMSub 7 VII 37:56.5   1:57.9  213.5 
89Rich EnnersMDiamonds I 37:58.2   1:58.0  213.1 
90Andy BurrowsMTeam Oarsome II 38:00.1   1:58.1  212.5 
91Hal Appleyard01MSub 7 VII 38:00.5   1:58.1  212.4 
92Tako LootsmaMFitness Matters IV 38:04.1   1:58.3  211.4 
93Scott RoyalMFirm Fitness I 38:08.4   1:58.5  210.2 
94Mike DohertyMIsenhurst Rowers I 38:09.1   1:58.6  210.0 
95Paul GouldMFree Spirits II 38:12.5   1:58.7  209.1 
96Paul MortonmSub 7 III 38:19.8   1:59.1  207.1 
97John.StinermDiamonds I 38:19.9   1:59.1  207.1 
98Richard WolfMForum Flyers II 38:26.2   1:59.4  205.4 
99Robert JonesMSub 7 VIII 38:30.6   1:59.7  204.2 
100Karl Hoods TDRmThe Delivery Room II 38:32.5   1:59.8  203.7 
101Robert HenmanMDiamonds I 38:35.8   1:59.9  202.9 
102GafferMAge Without Limits I 38:36.0   2:00.0  202.8 
103Chris NewberrymFree Spirits I 38:45.4   2:00.4  200.3 
104Jon P TaylormFree Spirits II 38:47.3   2:00.5  199.9 
105Steve OckerbyMForum Flyers II 38:52.1   2:00.8  198.6 
106Matt NewmanmTeam Oarsome III 38:55.2   2:00.9  197.8 
107Benita ClausenFSub 7 I 38:57.6   2:01.1  197.2 
108Mirella McGeeFSub 7 II 39:03.2   2:01.4  195.8 
109Jon GoodallMMAD II 39:04.3   2:01.4  195.5 
110Marc VoorheesmForum Flyers I 39:11.2   2:01.8  193.8 
111Luther JonesMDiamonds I 39:12.4   2:01.8  193.5 
112LindsayhMForum Flyers III 39:12.7   2:01.9  193.5 
113Jim McCarthyMDiamonds II 39:15.6   2:02.0  192.7 
114Eddie McSharryMSub 7 VIII 39:23.3   2:02.4  190.9 
115Will HaskellmForum Flyers II 39:25.8   2:02.5  190.3 
116Terry FFmForum Flyers III 39:37.5   2:03.1  187.5 
117Neil LittlemDiamonds II 39:37.8   2:03.2  187.4 
118George Bingham (RLR LWT)mRed Line Rowers II 39:47.4   2:03.6  185.1 
119Jackie HamerFSub 7 III 39:51.6   2:03.9  184.2 
120Chris WhaleMForum Flyers III 39:55.6   2:04.1  183.2 
121Wayne E. CalvertMDiamonds II 40:01.3   2:04.4  181.9 
122AMNW Ian NorthcottMMercian Nordic Walking I 40:02.6   2:04.4  181.7 
123Tony LorrimermGee Crew I 40:06.5   2:04.6  180.8 
124Steve MotznyMAge Without Limits I 40:07.5   2:04.7  180.5 
125Rich InsleymThe Chain Pullers I 40:11.4   2:04.9  179.7 
126David R. HerzMAge Without Limits I 40:11.6   2:04.9  179.6 
127ESPRIT - Audrey FerecFESPRIT I 40:15.1   2:05.1  178.8 
128Hanna NeugebauerFFitness Matters II 40:23.9   2:05.5  176.9 
129Mike ForderMDiamonds II 40:26.6   2:05.7  176.3 
130davidmarksMPaddy Power I 40:28.6   2:05.8  175.9 
131David PlumbmFree Spirits II 40:34.5   2:06.1  174.6 
132Ellen PazdziorFDiamonds I 40:41.9   2:06.5  173.0 
133Louise Barber1409fFitness Matters III 40:52.4   2:07.0  170.8 
134Allen HmFree Spirits II 41:13.0   2:08.1  166.6 
135Sue ElleryFIsenhurst Rowers I 41:15.3   2:08.2  166.1 
136Tracy Watkins RLRFRed Line Rowers I 41:20.7   2:08.5  165.0 
137Nick CarapietmIsenhurst Rowers I 41:20.9   2:08.5  165.0 
138Derek MorozMThe Chain Pullers I 41:22.0   2:08.5  164.8 
139M D MItchellMErg365 I 41:22.6   2:08.6  164.6 
140Sabine PatissierFFIRT I 41:23.4   2:08.6  164.5 
141Arlene Wade (TO)fTeam Oarsome I 41:43.8   2:09.7  160.5 
142AMNW DaveWmMercian Nordic Walking I 41:48.2   2:09.9  159.7 
143Julie DrakeFSub 7 IV 41:57.6   2:10.4  157.9 
144..SkiScoresMattermSki Erg I 41:59.5   2:10.5  157.5 
145Rick BaykomForum Flyers III 42:02.2   2:10.6  157.0 
146Giles StewartmDiamonds III 42:11.5   2:11.1  155.3 
147FunkyrowerMGee Crew II 42:12.6   2:11.2  155.1 
148MBrownjohnmDiamonds III 42:27.8   2:12.0  152.3 
149Jill Hugessen.fDiamonds II 42:44.8   2:12.8  149.3 
150Mark WilliamsMFirm Fitness I 42:46.6   2:12.9  149.0 
151Natalie TrebilcockFGee Crew I 42:48.1   2:13.0  148.7 
152Peta RobinsonFDiamonds III 42:53.7   2:13.3  147.8 
153Glenn HortonMDiamonds III 43:01.9   2:13.7  146.4 
154Peter W StrawmAge Without Limits I 43:08.6   2:14.1  145.2 
155Eve EvisonFGee Crew II 43:33.3   2:15.3  141.2 
156AMNW Pauline DemelFMercian Nordic Walking I 43:37.9   2:15.6  140.4 
157Kevin LivesleyMThe Chain Pullers I 44:11.0   2:17.3  135.2 
158YorkieMESPRIT I 44:20.9   2:17.8  133.7 
159Bill PalmerMForum Flyers IV 44:39.7   2:18.8  130.9 
160Richard WebstermDiamonds III 44:44.5   2:19.0  130.2 
161Susan YoungFSub 7 V 44:48.5   2:19.2  129.6 
162Zoe OsborneFIsenhurst Rowers II 44:55.2   2:19.6  128.7 
163Philip PricemFree Spirits III 44:59.5   2:19.8  128.1 
164clareburrellfFree Spirits I 45:24.5   2:21.1  124.6 
165Sabrina RasmussenfForum Flyers I 45:27.8   2:21.3  124.1 
166Ian NimmomGee Crew II 45:38.7   2:21.8  122.6 
167MuckolFDiamonds IV 45:50.8   2:22.5  121.0 
168Bluebell31FSub 7 VI 46:36.3   2:24.8  115.2 
169Ruud JackelMRowPro Rowers I 46:47.0   2:25.4  113.9 
170Annette EdwardsFTeam Oarsome II 47:27.5   2:27.5  109.1 
171AMNWEsmeBfMercian Nordic Walking I 47:46.9   2:28.5  106.9 
172BurmanatorfThe Delivery Room I 47:57.7   2:29.0  105.7 
173Rachel RileyFIsenhurst Rowers II 47:58.4   2:29.1  105.6 
174Susan D FFCFFirm Fitness I 48:11.8   2:29.8  104.2 
175Nigel SalsburymDiamonds IV 48:24.2   2:30.4  102.8 
176Barnsley BobMDiamonds IV 48:51.3   2:31.8  100.0 
177AMNWPatTFMercian Nordic Walking I 49:05.9   2:32.6  98.5 
178Stefan LedinmDiamonds IV 49:21.8   2:33.4  97.0 
179Dan LynchMSub 7 VIII 49:33.9   2:34.0  95.8 
180Alex McGeefFirm Fitness I 49:58.0   2:35.3  93.5 
181AMNWSusanRichardsFMercian Nordic Walking II 51:26.2   2:39.8  85.7 
182Anna Rae GreenFForum Flyers II 51:43.0   2:40.7  84.3 
183Roger BurrellmFree Spirits III 52:00.3   2:41.6  82.9 
184Heather SaundersfDiamonds IV 54:13.8   2:48.5  73.1 
185AMNWAnnMasonfMercian Nordic Walking II 58:21.9   3:01.4  58.7 
1
22 pts
Fitness Matters I 35:03.3
Tim Perkins FM (H)
Martin Mario Jelani (H)
BlanksbyFM (H)
Alastair Peake FM (L)
Laura Tingle (F)
2
21 pts
Sub 7 I 35:26.6
Lewin2 (H)
Ben Jago (H)
Warren Matthews (H)
Glyn Lloyd (L)
Benita Clausen (F)
3
20 pts
Sub 7 II 35:52.7
Casey Clarke (H)
Kevin Carter (H)
Alan Denby (H)
James Howard (L)
Mirella McGee (F)
4
19 pts
Red Line Rowers I 36:37.7
Paul Sands (H)
Rowland Hills (RLR) (H)
Keith Darby (L)
meurice robinson RLR (L)
Tracy Watkins RLR (F)
5
18 pts
Sub 7 III 36:39.7
Rich Dixon (H)
Ian Wilde (H)
Matt Eades (H)
Paul Morton (L)
Jackie Hamer (F)
6
17 pts
FIRT I 36:54.2
Vgueret (H)
js.kls (L)
Mercier (L)
Bertrand (L)
Sabine Patissier (F)
7
16 pts
Team Oarsome I 36:58.2
Ade Peel TO x1 (H)
Nick Rockliff (H)
Peter Clowes (H)
Craig Mumby (L)
Arlene Wade (TO) (F)
8
15 pts
Fitness Matters II 36:58.4
Josh Skversky FM (H)
Paul Nuttall (H)
tony walpole (H)
Justin Nickel FM (L)
Hanna Neugebauer (F)
9
14 pts
The Delivery Room I 37:17.5
Ian Gallagher TDR (H)
Nathaniel Wright TDR (H)
Mark Roberts TDR (H)
Alex Winser TDR (L)
Burmanator (F)
10
13 pts
Fitness Matters III 37:32.0
Patrik Gustafsson (H)
Paul Lloyd FM (H)
James Clarke (H)
B McAuley (L)
Louise Barber1409 (F)
11
12 pts
Gee Crew I 38:09.8
Harbour Rat (H)
Andy Parkes (H)
Rouge (H)
Tony Lorrimer (L)
Natalie Trebilcock (F)
12
11 pts
Free Spirits I 38:33.3
sjoerd plagmeijer (H)
Matthew Leonard (H)
Jan Borkenstein (H)
Chris Newberry (L)
clareburrell (F)
13
10 pts
Isenhurst Rowers I 38:50.1
Jonty Eyres (H)
Phil Rayner (H)
Mike Doherty (H)
Nick Carapiet (L)
Sue Ellery (F)
14
9 pts
Forum Flyers I 38:51.1
Nigel Farmer (H)
Allan Hallberg (H)
harrythehamster (H)
Marc Voorhees (L)
Sabrina Rasmussen (F)
15
8 pts
Diamonds I 38:57.6
Rich Enners (H)
Robert Henman (H)
Luther Jones (H)
John.Stiner (L)
Ellen Pazdzior (F)
16
7 pts
Team Oarsome II 39:02.7
Dave Chmilowskyj (H)
Gerry Armstrong (H)
Andy Burrows (H)
Gregory Cook (L)
Annette Edwards (F)
17
6 pts
Diamonds II 40:25.2
Jim McCarthy (H)
Wayne E. Calvert (H)
Mike Forder (H)
Neil Little (L)
Jill Hugessen. (F)
18
5 pts
Forum Flyers II 41:15.7
Jon Sarche (H)
Richard Wolf (H)
Steve Ockerby (H)
Will Haskell (L)
Anna Rae Green (F)
19
4 pts
Diamonds III 43:03.8
Glenn Horton (H)
Giles Stewart (L)
MBrownjohn (L)
Richard Webster (L)
Peta Robinson (F)
20
3 pts
Firm Fitness I 43:21.9
Scott Royal (H)
Mark Williams (H)
Paul Timmons FFC (L)
Alex McGee (L)
Susan D FFC (F)
21
2 pts
Mercian Nordic Walking I 44:28.3
AMNW Ian Northcott (H)
AMNW DaveW (L)
AMNWEsmeB (L)
AMNW Pauline Demel (F)
AMNWPatT (F)
22
1 pt
Diamonds IV 49:20.3
Barnsley Bob (H)
Nigel Salsbury (L)
Stefan Ledin (L)
Heather Saunders (L)
Muckol (F)
23Germania I32:34.1
Tobias Stöhr (H)
 
24Te Waka Aotearoa I32:46.5
NZ - Andy Tomlinson (H)
 
25GARAGEATHLETE I34:22.2
Justin Farina (H)
Craig Hodges (H)
Mark Hudson (H)
 
26MAD I34:39.0
j.d (H)
Russell Carter (H)
Pete Marston (H)
 
27C2TweetCrew I35:46.0
Kay Bieri (H)
 
28The Delivery Room III36:08.7
Tony Maddocks (H)
Matthew James Fuller (H)
 
29The Delivery Room II36:20.7
..IDR TDW (H)
Mark Tremblay (H)
Richard SA (H)
Karl Hoods TDR (L)
30Sub 7 IV37:21.5
Mark Smith Sub7 (H)
Rob Phillips (H)
Richard Pruce (H)
Julie Drake (F)
31Empty the Tanks I37:45.5
Kevin Hillman (H)
 
32Fitness Matters IV37:47.8
Tako Lootsma (H)
Carl Granfelt (L)
Adam Yalowich (L)
 
33Sub 7 VII37:51.4
Glynn Powell (H)
Richard Steventon (H)
Hal Appleyard01 (H)
 
34Ski Erg I38:20.1
js.klski (L)
..SkiScoresMatter (L)
 
35Sub 7 V38:22.0
Jeroen Pasman (H)
John Walsh (H)
Eric August (H)
Susan Young (F)
36Red Line Rowers II38:37.2
Russell Jones (H)
George Bingham (RLR LWT) (L)
 
37Paddy Power I38:41.6
Guillaume Dauphin (H)
davidmarks (H)
 
38Team Oarsome III38:55.2
Matt Newman (L)
 
39MAD II39:04.3
Jon Goodall (H)
 
40Sub 7 VI39:24.6
Jake Luce (H)
Rob Palk Sub 7 (H)
Mike Pearce (MPx) (H)
Bluebell31 (F)
41Free Spirits II39:41.8
Paul Gould (H)
Jon P Taylor (L)
David Plumb (L)
Allen H (L)
42Forum Flyers III40:12.0
Lindsayh (H)
Chris Whale (H)
Terry FF (L)
Rick Bayko (L)
43Age Without Limits I40:30.9
Gaffer (H)
Steve Motzny (H)
David R. Herz (H)
Peter W Straw (L)
44Erg365 I41:22.6
M D MItchell (H)
 
45The Chain Pullers I41:54.8
Derek Moroz (H)
Kevin Livesley (H)
Rich Insley (L)
 
46Gee Crew II42:08.4
Andy Cole (H)
Funkyrower (H)
Ian Nimmo (L)
Eve Evison (F)
47ESPRIT I42:18.0
Yorkie (H)
ESPRIT - Audrey Ferec (F)
 
48Sub 7 VIII42:29.2
Robert Jones (H)
Eddie McSharry (H)
Dan Lynch (H)
 
49Forum Flyers IV44:39.7
Bill Palmer (H)
 
50Isenhurst Rowers II46:26.8
Zoe Osborne (F)
Rachel Riley (F)
 
51RowPro Rowers I46:47.0
Ruud Jackel (H)
 
52Free Spirits III48:29.9
Philip Price (L)
Roger Burrell (L)
 
53Mercian Nordic Walking II54:54.0
AMNWAnnMason (L)
AMNWSusanRichards (F)
 

The Cross-Team Challenge is not supported or endorsed by Concept 2.
Site written by Daren Chandisingh. Please post any problems on the UK Concept 2 forum.

Valid XHTML 1.0 Transitional